Time;durP1;ratioP1;P1;durP2;ratioP2;P2;SDS_P1;SDS_P2;PMS_P1;PMS_P2;Temp;Humidity;BMP_temperature;BMP_pressure;BME280_temperature;BME280_humidity;BME280_pressure;Samples;Min_cycle;Max_cycle;Signal;HPM_P1;HPM_P2
2023/03/12 00:01:14;;;;;;;;;;;2.90;41.10;;;;;;5035128;28;19913;-71
2023/03/12 00:03:39;;;;;;;;;;;2.90;40.60;;;;;;5035252;28;19910;-71
2023/03/12 00:06:05;;;;;;;;;;;2.90;40.80;;;;;;5033893;28;19919;-72
2023/03/12 00:08:31;;;;;;;;;;;2.90;39.80;;;;;;5035041;28;19937;-72
2023/03/12 00:10:56;;;;;;;;;;;2.90;40.70;;;;;;5035011;28;20345;-73
2023/03/12 00:13:22;;;;;;;;;;;2.90;40.20;;;;;;5034918;28;19913;-71
2023/03/12 00:15:47;;;;;;;;;;;3.00;41.00;;;;;;5033973;28;19956;-70
2023/03/12 00:18:13;;;;;;;;;;;3.00;39.00;;;;;;5035755;28;19909;-70
2023/03/12 00:20:38;;;;;;;;;;;3.00;39.00;;;;;;5035892;28;19909;-72
2023/03/12 00:23:04;;;;;;;;;;;3.10;38.90;;;;;;5034766;28;19913;-72
2023/03/12 00:25:29;;;;;;;;;;;3.10;38.90;;;;;;5034748;28;19971;-71
2023/03/12 00:27:54;;;;;;;;;;;3.10;38.10;;;;;;5035010;28;19913;-71
2023/03/12 00:30:20;;;;;;;;;;;3.20;37.50;;;;;;5050581;28;19948;-71
2023/03/12 00:32:45;;;;;;;;;;;3.20;37.50;;;;;;5034388;28;19909;-73
2023/03/12 00:35:11;;;;;;;;;;;3.20;35.70;;;;;;5034492;28;19916;-71
2023/03/12 00:37:37;;;;;;;;;;;3.30;36.90;;;;;;5034594;28;20290;-70
2023/03/12 00:40:04;;;;;;;;;;;3.20;37.50;;;;;;5034925;28;19928;-71
2023/03/12 00:42:30;;;;;;;;;;;3.20;37.70;;;;;;5034631;28;19915;-71
2023/03/12 00:44:55;;;;;;;;;;;3.30;36.40;;;;;;5034540;28;20361;-70
2023/03/12 00:47:21;;;;;;;;;;;3.30;36.70;;;;;;5034718;28;19951;-72
2023/03/12 00:49:46;;;;;;;;;;;3.40;36.20;;;;;;5034367;28;20192;-71
2023/03/12 00:52:12;;;;;;;;;;;3.50;35.10;;;;;;5033966;28;19917;-71
2023/03/12 00:54:37;;;;;;;;;;;3.40;34.50;;;;;;5033102;28;19925;-71
2023/03/12 00:57:03;;;;;;;;;;;3.40;34.60;;;;;;5034139;28;19909;-72
2023/03/12 00:59:28;;;;;;;;;;;3.40;35.50;;;;;;5034052;28;20290;-71
2023/03/12 01:01:54;;;;;;;;;;;3.40;35.20;;;;;;5033806;28;20337;-70
2023/03/12 01:04:19;;;;;;;;;;;3.40;36.20;;;;;;5034194;28;19913;-71
2023/03/12 01:06:44;;;;;;;;;;;3.30;36.40;;;;;;5034786;28;19921;-71
2023/03/12 01:09:10;;;;;;;;;;;3.40;35.50;;;;;;5048867;28;19921;-71
2023/03/12 01:11:36;;;;;;;;;;;3.40;35.50;;;;;;5034003;28;19916;-70
2023/03/12 01:14:06;;;;;;;;;;;3.40;36.40;;;;;;5034374;28;19971;-71
2023/03/12 01:16:31;;;;;;;;;;;3.40;35.20;;;;;;5033839;28;19910;-72
2023/03/12 01:18:57;;;;;;;;;;;3.40;34.60;;;;;;5033382;28;20016;-73
2023/03/12 01:21:23;;;;;;;;;;;3.40;34.60;;;;;;5033705;28;19936;-72
2023/03/12 01:23:49;;;;;;;;;;;3.40;34.60;;;;;;5034210;28;19955;-70
2023/03/12 01:26:15;;;;;;;;;;;3.30;35.30;;;;;;5024486;28;20394;-71
2023/03/12 01:28:40;;;;;;;;;;;3.30;35.00;;;;;;5037119;28;19972;-70
2023/03/12 01:31:09;;;;;;;;;;;3.40;35.50;;;;;;5036768;28;19917;-70
2023/03/12 01:33:35;;;;;;;;;;;3.40;35.60;;;;;;5036134;28;19913;-71
2023/03/12 01:36:00;;;;;;;;;;;3.40;35.20;;;;;;5024396;28;19993;-71
2023/03/12 01:38:26;;;;;;;;;;;3.50;34.60;;;;;;5033056;28;20000;-70
2023/03/12 01:40:51;;;;;;;;;;;3.60;34.40;;;;;;5033076;28;19932;-71
2023/03/12 01:43:31;;;;;;;;;;;3.60;34.20;;;;;;5033648;28;19917;-71
2023/03/12 01:46:09;;;;;;;;;;;3.60;32.50;;;;;;5032832;28;19919;-70
2023/03/12 01:48:38;;;;;;;;;;;3.60;32.80;;;;;;5033466;28;19913;-71
2023/03/12 01:51:05;;;;;;;;;;;3.50;33.40;;;;;;5033393;28;19909;-71
2023/03/12 01:53:30;;;;;;;;;;;3.60;33.60;;;;;;5033642;28;19974;-70
2023/03/12 01:55:57;;;;;;;;;;;3.50;33.50;;;;;;5033676;28;19996;-71
2023/03/12 01:58:23;;;;;;;;;;;3.50;34.70;;;;;;5033738;28;19995;-71
2023/03/12 02:00:48;;;;;;;;;;;3.40;33.80;;;;;;5033707;28;19948;-71
2023/03/12 02:03:14;;;;;;;;;;;3.50;33.70;;;;;;5033017;28;19996;-72
2023/03/12 02:05:53;;;;;;;;;;;3.50;34.00;;;;;;5033406;28;19956;-71
2023/03/12 02:08:20;;;;;;;;;;;3.50;34.90;;;;;;5033255;28;19916;-71
2023/03/12 02:10:46;;;;;;;;;;;3.50;34.20;;;;;;5033411;28;20267;-70
2023/03/12 02:13:12;;;;;;;;;;;3.50;34.90;;;;;;5033217;28;20259;-71
2023/03/12 02:15:37;;;;;;;;;;;3.50;34.30;;;;;;5033429;28;19920;-72
2023/03/12 02:18:04;;;;;;;;;;;3.40;34.80;;;;;;5033172;28;20003;-70
2023/03/12 02:20:45;;;;;;;;;;;3.40;34.50;;;;;;5033018;28;19909;-71
2023/03/12 02:23:25;;;;;;;;;;;3.40;34.10;;;;;;5033290;28;20286;-70
2023/03/12 02:25:51;;;;;;;;;;;3.40;35.30;;;;;;5032722;28;19920;-71
2023/03/12 02:28:18;;;;;;;;;;;3.40;35.90;;;;;;5032199;28;19921;-71
2023/03/12 02:30:45;;;;;;;;;;;3.50;34.20;;;;;;5033187;28;19995;-70
2023/03/12 02:33:11;;;;;;;;;;;3.50;33.40;;;;;;5032977;28;19943;-70
2023/03/12 02:35:37;;;;;;;;;;;3.50;34.60;;;;;;5033744;28;20369;-71
2023/03/12 02:38:03;;;;;;;;;;;3.50;33.90;;;;;;5032857;28;20256;-71
2023/03/12 02:40:39;;;;;;;;;;;3.50;34.40;;;;;;5048443;28;19909;-71
2023/03/12 02:43:06;;;;;;;;;;;3.50;34.70;;;;;;5032568;28;19913;-70
2023/03/12 02:45:32;;;;;;;;;;;3.60;33.70;;;;;;5032718;28;19935;-71
2023/03/12 02:47:57;;;;;;;;;;;3.60;33.50;;;;;;5032900;28;19909;-71
2023/03/12 02:50:23;;;;;;;;;;;3.60;32.60;;;;;;5032767;28;20382;-70
2023/03/12 02:52:48;;;;;;;;;;;3.60;34.20;;;;;;5032749;28;19963;-70
2023/03/12 02:55:14;;;;;;;;;;;3.70;34.40;;;;;;5032799;28;19921;-71
2023/03/12 02:57:41;;;;;;;;;;;3.70;34.60;;;;;;5035764;28;19910;-71
2023/03/12 03:00:11;;;;;;;;;;;3.70;34.60;;;;;;5035671;28;19917;-71
2023/03/12 03:02:37;;;;;;;;;;;3.70;33.20;;;;;;5037175;28;19916;-72
2023/03/12 03:05:02;;;;;;;;;;;3.70;33.10;;;;;;5033777;28;19956;-71
2023/03/12 03:07:28;;;;;;;;;;;3.60;34.20;;;;;;5034024;28;19909;-72
2023/03/12 03:09:53;;;;;;;;;;;3.70;33.80;;;;;;5039939;28;19909;-71
2023/03/12 03:12:19;;;;;;;;;;;3.70;32.20;;;;;;5045119;28;19967;-72
2023/03/12 03:14:44;;;;;;;;;;;3.70;32.90;;;;;;5042066;28;20328;-71
2023/03/12 03:17:09;;;;;;;;;;;3.60;33.40;;;;;;5037144;28;19948;-72
2023/03/12 03:19:35;;;;;;;;;;;3.50;33.40;;;;;;5043367;28;19916;-72
2023/03/12 03:22:00;;;;;;;;;;;3.60;33.70;;;;;;5040906;28;19991;-71
2023/03/12 03:24:26;;;;;;;;;;;3.60;34.40;;;;;;5047859;28;20343;-70
2023/03/12 03:26:51;;;;;;;;;;;3.60;33.50;;;;;;5031773;28;19917;-71
2023/03/12 03:29:17;;;;;;;;;;;3.60;33.70;;;;;;5033641;28;19952;-71
2023/03/12 03:31:42;;;;;;;;;;;3.70;35.50;;;;;;5032408;28;19909;-71
2023/03/12 03:34:09;;;;;;;;;;;3.60;34.40;;;;;;5032487;28;19948;-71
2023/03/12 03:36:34;;;;;;;;;;;3.60;33.10;;;;;;5032537;28;19968;-70
2023/03/12 03:39:00;;;;;;;;;;;3.60;34.20;;;;;;5032975;28;19909;-71
2023/03/12 03:41:25;;;;;;;;;;;3.70;33.00;;;;;;5035259;28;19916;-70
2023/03/12 03:43:54;;;;;;;;;;;3.70;32.60;;;;;;5036215;28;20340;-71
2023/03/12 03:46:20;;;;;;;;;;;3.80;33.40;;;;;;5035642;28;19909;-71
2023/03/12 03:48:45;;;;;;;;;;;3.80;33.70;;;;;;5035857;28;19932;-72
2023/03/12 03:51:11;;;;;;;;;;;3.80;32.20;;;;;;5035313;28;19923;-72
2023/03/12 03:53:36;;;;;;;;;;;3.90;31.40;;;;;;5035418;28;20339;-71
2023/03/12 03:56:08;;;;;;;;;;;3.90;31.60;;;;;;5035335;28;19909;-71
2023/03/12 03:58:34;;;;;;;;;;;3.90;31.70;;;;;;5034833;28;20580;-71
2023/03/12 04:01:00;;;;;;;;;;;3.90;32.30;;;;;;5034706;28;19909;-70
2023/03/12 04:03:25;;;;;;;;;;;3.90;32.10;;;;;;5034878;28;19938;-70
2023/03/12 04:05:57;;;;;;;;;;;3.90;33.30;;;;;;5034828;28;20031;-70
2023/03/12 04:08:23;;;;;;;;;;;3.90;33.10;;;;;;5034569;28;20445;-69
2023/03/12 04:10:49;;;;;;;;;;;4.00;31.80;;;;;;5034602;28;20000;-70
2023/03/12 04:13:14;;;;;;;;;;;4.00;31.70;;;;;;5034519;28;19928;-71
2023/03/12 04:15:45;;;;;;;;;;;4.00;31.70;;;;;;5034412;28;19909;-71
2023/03/12 04:18:10;;;;;;;;;;;4.10;31.70;;;;;;5034483;28;19910;-70
2023/03/12 04:20:35;;;;;;;;;;;4.10;30.80;;;;;;5034546;28;19910;-70
2023/03/12 04:23:01;;;;;;;;;;;4.10;31.90;;;;;;5034630;28;19948;-71
2023/03/12 04:25:26;;;;;;;;;;;4.10;33.10;;;;;;5034571;28;19913;-71
2023/03/12 04:27:52;;;;;;;;;;;4.10;32.50;;;;;;5034546;28;19967;-71
2023/03/12 04:30:17;;;;;;;;;;;4.10;31.90;;;;;;5034740;28;20358;-70
2023/03/12 04:32:43;;;;;;;;;;;4.10;31.90;;;;;;5033082;28;19909;-70
2023/03/12 04:35:08;;;;;;;;;;;4.10;32.30;;;;;;5034033;28;19909;-69
2023/03/12 04:37:34;;;;;;;;;;;4.10;31.90;;;;;;5034110;28;20420;-70
2023/03/12 04:40:00;;;;;;;;;;;4.20;32.40;;;;;;5032686;28;19909;-70
2023/03/12 04:42:26;;;;;;;;;;;4.20;32.10;;;;;;5033882;28;19909;-69
2023/03/12 04:44:51;;;;;;;;;;;4.10;31.90;;;;;;5034046;28;19920;-70
2023/03/12 04:47:17;;;;;;;;;;;4.10;31.70;;;;;;5033973;28;19993;-70
2023/03/12 04:49:42;;;;;;;;;;;4.20;30.70;;;;;;5034063;28;20012;-70
2023/03/12 04:52:07;;;;;;;;;;;4.20;31.70;;;;;;5032978;28;19910;-70
2023/03/12 04:54:33;;;;;;;;;;;4.20;31.60;;;;;;5033711;28;19914;-70
2023/03/12 04:56:59;;;;;;;;;;;4.20;30.70;;;;;;5033693;28;19913;-70
2023/03/12 04:59:24;;;;;;;;;;;4.20;31.20;;;;;;5033969;28;19909;-71
2023/03/12 05:01:50;;;;;;;;;;;4.20;31.20;;;;;;5033645;28;19910;-70
2023/03/12 05:04:16;;;;;;;;;;;4.30;31.20;;;;;;5033637;28;19913;-69
2023/03/12 05:06:41;;;;;;;;;;;4.30;32.30;;;;;;5033687;28;20267;-70
2023/03/12 05:09:07;;;;;;;;;;;4.30;32.70;;;;;;5033463;28;19952;-70
2023/03/12 05:11:32;;;;;;;;;;;4.30;32.20;;;;;;5033807;28;19917;-71
2023/03/12 05:13:58;;;;;;;;;;;4.30;33.80;;;;;;5033821;28;19909;-70
2023/03/12 05:16:23;;;;;;;;;;;4.30;33.60;;;;;;5033569;28;19967;-71
2023/03/12 05:18:49;;;;;;;;;;;4.30;35.30;;;;;;5033378;28;19916;-70
2023/03/12 05:21:16;;;;;;;;;;;4.30;35.00;;;;;;5033427;28;19998;-72
2023/03/12 05:23:42;;;;;;;;;;;4.30;37.00;;;;;;5033655;28;20275;-71
2023/03/12 05:26:21;;;;;;;;;;;4.20;36.30;;;;;;5033663;28;20413;-70
2023/03/12 05:28:47;;;;;;;;;;;4.20;37.80;;;;;;5036099;28;19917;-69
2023/03/12 05:31:13;;;;;;;;;;;4.10;37.90;;;;;;5051807;28;20047;-70
2023/03/12 05:33:38;;;;;;;;;;;4.10;40.20;;;;;;5051187;28;19909;-70
2023/03/12 05:36:04;;;;;;;;;;;4.10;39.10;;;;;;5042791;28;19917;-70
2023/03/12 05:38:29;;;;;;;;;;;4.10;39.80;;;;;;5033298;28;19998;-69
2023/03/12 05:40:56;;;;;;;;;;;4.10;39.00;;;;;;5032907;28;20367;-70
2023/03/12 05:43:22;;;;;;;;;;;4.10;39.30;;;;;;5033113;28;19916;-69
2023/03/12 05:45:47;;;;;;;;;;;4.10;39.10;;;;;;5033203;28;20371;-70
2023/03/12 05:48:13;;;;;;;;;;;4.10;39.80;;;;;;5033368;28;19913;-70
2023/03/12 05:50:38;;;;;;;;;;;4.10;41.80;;;;;;5033056;28;19944;-70
2023/03/12 05:53:04;;;;;;;;;;;4.00;41.20;;;;;;5032795;28;19913;-71
2023/03/12 05:55:29;;;;;;;;;;;4.10;39.70;;;;;;5032897;28;19963;-70
2023/03/12 05:57:55;;;;;;;;;;;4.10;38.90;;;;;;5047963;28;19948;-70
2023/03/12 06:00:20;;;;;;;;;;;4.10;40.80;;;;;;5032641;28;19909;-69
2023/03/12 06:02:46;;;;;;;;;;;4.10;42.70;;;;;;5032374;28;20286;-70
2023/03/12 06:05:12;;;;;;;;;;;4.00;41.70;;;;;;5032457;28;20363;-70
2023/03/12 06:07:37;;;;;;;;;;;4.00;41.00;;;;;;5032262;28;19909;-70
2023/03/12 06:10:03;;;;;;;;;;;4.10;43.20;;;;;;5032398;28;19909;-70
2023/03/12 06:12:28;;;;;;;;;;;4.10;45.00;;;;;;5032253;28;19909;-70
2023/03/12 06:14:56;;;;;;;;;;;4.10;43.90;;;;;;5032420;28;19960;-70
2023/03/12 06:17:21;;;;;;;;;;;4.20;45.00;;;;;;5032622;28;19920;-71
2023/03/12 06:19:49;;;;;;;;;;;4.20;45.50;;;;;;5032611;28;20286;-70
2023/03/12 06:22:14;;;;;;;;;;;4.20;46.70;;;;;;5032261;28;19913;-70
2023/03/12 06:24:41;;;;;;;;;;;4.20;46.40;;;;;;5032519;28;20003;-71
2023/03/12 06:27:06;;;;;;;;;;;4.20;48.60;;;;;;5032327;28;19909;-71
2023/03/12 06:29:32;;;;;;;;;;;4.20;50.10;;;;;;5032731;28;19979;-70
2023/03/12 06:31:57;;;;;;;;;;;4.10;52.40;;;;;;5032083;28;19909;-72
2023/03/12 06:34:23;;;;;;;;;;;4.10;54.10;;;;;;5032222;28;20000;-71
2023/03/12 06:36:48;;;;;;;;;;;4.20;55.80;;;;;;5032380;28;19916;-71
2023/03/12 06:39:14;;;;;;;;;;;4.20;57.70;;;;;;5032048;28;19949;-70
2023/03/12 06:41:40;;;;;;;;;;;4.20;60.70;;;;;;5031872;28;19909;-71
2023/03/12 06:44:06;;;;;;;;;;;4.20;59.40;;;;;;5031965;28;19924;-71
2023/03/12 06:46:31;;;;;;;;;;;4.20;62.40;;;;;;5032337;28;19909;-73
2023/03/12 06:48:57;;;;;;;;;;;4.20;63.20;;;;;;5032475;28;19949;-72
2023/03/12 06:51:22;;;;;;;;;;;4.20;65.30;;;;;;5032687;28;19909;-72
2023/03/12 06:53:48;;;;;;;;;;;4.20;63.90;;;;;;5032254;28;19913;-71
2023/03/12 06:56:13;;;;;;;;;;;4.10;64.90;;;;;;5031979;28;19921;-72
2023/03/12 06:58:39;;;;;;;;;;;4.20;64.40;;;;;;5032126;28;19912;-71
2023/03/12 07:01:04;;;;;;;;;;;4.10;65.60;;;;;;5032049;28;19953;-72
2023/03/12 07:03:30;;;;;;;;;;;4.10;66.90;;;;;;5032044;28;19909;-70
2023/03/12 07:05:56;;;;;;;;;;;4.20;66.30;;;;;;5032171;28;19913;-71
2023/03/12 07:08:22;;;;;;;;;;;4.20;66.70;;;;;;5032320;28;19916;-71
2023/03/12 07:10:47;;;;;;;;;;;4.20;64.80;;;;;;5031916;28;19909;-72
2023/03/12 07:13:13;;;;;;;;;;;4.20;63.80;;;;;;5031788;28;19913;-72
2023/03/12 07:15:39;;;;;;;;;;;4.40;64.00;;;;;;5034359;28;19971;-72
2023/03/12 07:18:05;;;;;;;;;;;4.40;63.40;;;;;;5034297;28;20263;-71
2023/03/12 07:20:31;;;;;;;;;;;4.30;64.10;;;;;;5034530;28;19910;-71
2023/03/12 07:22:57;;;;;;;;;;;4.40;64.30;;;;;;5035402;28;19963;-71
2023/03/12 07:25:23;;;;;;;;;;;4.50;64.20;;;;;;5035639;28;19974;-72
2023/03/12 07:27:48;;;;;;;;;;;4.70;59.70;;;;;;5035539;28;20299;-72
2023/03/12 07:30:14;;;;;;;;;;;4.60;59.20;;;;;;5035583;28;19917;-72
2023/03/12 07:32:39;;;;;;;;;;;4.60;59.10;;;;;;5035463;28;20003;-71
2023/03/12 07:35:05;;;;;;;;;;;4.70;58.80;;;;;;5035773;28;19913;-71
2023/03/12 07:37:30;;;;;;;;;;;4.80;58.80;;;;;;5034305;28;19964;-71
2023/03/12 07:39:56;;;;;;;;;;;4.80;56.40;;;;;;5035474;28;19916;-73
2023/03/12 07:42:22;;;;;;;;;;;4.80;57.10;;;;;;5035390;28;19952;-72
2023/03/12 07:44:47;;;;;;;;;;;4.80;57.10;;;;;;5035349;28;19920;-72
2023/03/12 07:47:13;;;;;;;;;;;4.80;57.30;;;;;;5035050;28;19913;-73
2023/03/12 07:49:40;;;;;;;;;;;4.70;59.60;;;;;;5035319;28;19915;-70
2023/03/12 07:52:10;;;;;;;;;;;4.70;61.00;;;;;;5034818;28;19909;-72
2023/03/12 07:54:36;;;;;;;;;;;4.80;59.10;;;;;;5035169;28;19909;-71
2023/03/12 07:57:02;;;;;;;;;;;4.70;58.10;;;;;;5035014;28;19909;-72
2023/03/12 07:59:28;;;;;;;;;;;4.90;59.70;;;;;;5033711;28;19915;-73
2023/03/12 08:01:53;;;;;;;;;;;5.00;59.10;;;;;;5035159;28;19913;-70
2023/03/12 08:04:19;;;;;;;;;;;5.20;56.60;;;;;;5036040;28;19960;-73
2023/03/12 08:06:45;;;;;;;;;;;5.30;56.00;;;;;;5036414;28;19951;-72
2023/03/12 08:09:10;;;;;;;;;;;5.60;53.80;;;;;;5038602;28;19985;-71
2023/03/12 08:11:36;;;;;;;;;;;5.50;52.60;;;;;;5037260;28;20423;-72
2023/03/12 08:14:02;;;;;;;;;;;5.50;53.00;;;;;;5036672;28;19921;-73
2023/03/12 08:16:28;;;;;;;;;;;5.40;53.10;;;;;;5037080;28;20291;-73
2023/03/12 08:18:53;;;;;;;;;;;5.30;55.00;;;;;;5038211;28;19916;-71
2023/03/12 08:21:19;;;;;;;;;;;5.40;53.80;;;;;;5040837;28;19913;-72
2023/03/12 08:23:44;;;;;;;;;;;5.30;54.70;;;;;;5037258;28;19909;-71
2023/03/12 08:26:09;;;;;;;;;;;5.40;54.60;;;;;;5039281;28;19913;-72
2023/03/12 08:28:35;;;;;;;;;;;5.60;53.90;;;;;;5038248;28;19921;-72
2023/03/12 08:31:01;;;;;;;;;;;5.70;53.90;;;;;;5040498;28;19909;-70
2023/03/12 08:33:28;;;;;;;;;;;5.70;53.30;;;;;;5046051;28;20143;-72
2023/03/12 08:35:54;;;;;;;;;;;5.80;56.10;;;;;;5043873;28;20184;-71
2023/03/12 08:38:19;;;;;;;;;;;6.10;56.80;;;;;;5038583;28;19909;-73
2023/03/12 08:40:45;;;;;;;;;;;6.10;57.20;;;;;;5037061;28;19940;-72
2023/03/12 08:43:10;;;;;;;;;;;6.10;57.70;;;;;;5037076;28;19916;-73
2023/03/12 08:45:36;;;;;;;;;;;6.30;60.40;;;;;;5036769;28;20008;-71
2023/03/12 08:48:05;;;;;;;;;;;6.30;60.90;;;;;;5037392;28;19999;-71
2023/03/12 08:50:31;;;;;;;;;;;6.40;62.40;;;;;;5036920;28;19909;-71
2023/03/12 08:52:57;;;;;;;;;;;6.30;64.00;;;;;;5036943;28;19916;-71
2023/03/12 08:55:23;;;;;;;;;;;6.20;67.50;;;;;;5036525;28;20281;-73
2023/03/12 08:57:48;;;;;;;;;;;6.30;71.10;;;;;;5037331;28;19909;-73
2023/03/12 09:00:15;;;;;;;;;;;6.30;68.40;;;;;;5035967;28;20362;-73
2023/03/12 09:02:43;;;;;;;;;;;6.30;69.20;;;;;;5036345;28;19962;-72
2023/03/12 09:05:10;;;;;;;;;;;6.30;69.90;;;;;;5036710;28;19997;-71
2023/03/12 09:07:36;;;;;;;;;;;6.30;70.60;;;;;;5036386;28;19980;-71
2023/03/12 09:10:01;;;;;;;;;;;6.20;72.90;;;;;;5035361;28;20351;-70
2023/03/12 09:12:27;;;;;;;;;;;6.00;74.10;;;;;;5035936;28;20009;-72
2023/03/12 09:14:52;;;;;;;;;;;5.90;77.90;;;;;;5035614;28;19913;-73
2023/03/12 09:17:18;;;;;;;;;;;5.90;81.20;;;;;;5036367;28;19997;-73
2023/03/12 09:19:43;;;;;;;;;;;6.00;80.50;;;;;;5035295;28;20007;-72
2023/03/12 09:22:09;;;;;;;;;;;5.90;80.70;;;;;;5035310;28;19909;-73
2023/03/12 09:24:34;;;;;;;;;;;5.90;80.70;;;;;;5032891;28;19917;-72
2023/03/12 09:27:00;;;;;;;;;;;5.90;83.00;;;;;;5034452;28;19909;-71
2023/03/12 09:29:25;;;;;;;;;;;6.00;83.80;;;;;;5033294;28;19960;-71
2023/03/12 09:31:51;;;;;;;;;;;5.90;86.00;;;;;;5040104;28;19912;-72
2023/03/12 09:34:16;;;;;;;;;;;5.90;84.80;;;;;;5047948;28;19909;-71
2023/03/12 09:36:42;;;;;;;;;;;5.90;89.00;;;;;;5035946;28;19909;-71
2023/03/12 09:39:07;;;;;;;;;;;5.80;89.50;;;;;;5033782;28;19909;-71
2023/03/12 09:41:34;;;;;;;;;;;5.70;92.50;;;;;;5034490;28;20124;-72
2023/03/12 09:44:08;;;;;;;;;;;5.90;93.40;;;;;;5034410;28;19913;-72
2023/03/12 09:46:36;;;;;;;;;;;5.80;91.70;;;;;;5035076;28;19913;-74
2023/03/12 09:49:05;;;;;;;;;;;5.80;93.00;;;;;;5028467;28;19913;-73
2023/03/12 09:51:33;;;;;;;;;;;5.80;92.80;;;;;;5034651;28;19975;-75
2023/03/12 09:54:03;;;;;;;;;;;5.80;94.50;;;;;;5034191;28;20374;-71
2023/03/12 09:56:29;;;;;;;;;;;5.80;93.70;;;;;;5024463;28;19964;-71
2023/03/12 09:58:55;;;;;;;;;;;5.80;96.20;;;;;;5024830;28;19948;-70
2023/03/12 10:01:23;;;;;;;;;;;5.70;99.80;;;;;;5030476;28;19913;-71
2023/03/12 10:03:48;;;;;;;;;;;5.70;99.90;;;;;;5012491;28;19909;-73
2023/03/12 10:06:19;;;;;;;;;;;5.80;99.70;;;;;;5029214;28;19917;-74
2023/03/12 10:08:44;;;;;;;;;;;5.80;99.90;;;;;;5032226;28;19923;-72
2023/03/12 10:11:20;;;;;;;;;;;5.90;99.90;;;;;;5032008;28;19913;-72
2023/03/12 10:13:52;;;;;;;;;;;6.00;99.90;;;;;;5027082;28;19921;-71
2023/03/12 10:16:36;;;;;;;;;;;6.10;99.90;;;;;;5011318;28;19913;-71
2023/03/12 10:19:01;;;;;;;;;;;6.10;99.90;;;;;;5009450;28;20336;-74
2023/03/12 10:21:40;;;;;;;;;;;6.30;98.90;;;;;;5011320;28;20084;-72
2023/03/12 10:24:06;;;;;;;;;;;6.40;95.20;;;;;;5024064;28;20374;-73
2023/03/12 10:26:38;;;;;;;;;;;6.40;95.80;;;;;;5031154;28;19979;-71
2023/03/12 10:29:22;;;;;;;;;;;6.50;94.70;;;;;;5030365;28;19917;-73
2023/03/12 10:31:57;;;;;;;;;;;6.40;95.70;;;;;;5030789;28;20409;-72
2023/03/12 10:34:40;;;;;;;;;;;6.40;97.80;;;;;;5030816;28;19921;-72
2023/03/12 10:37:23;;;;;;;;;;;6.50;98.30;;;;;;5020352;28;19920;-72
2023/03/12 10:39:50;;;;;;;;;;;6.50;99.90;;;;;;5031416;28;20233;-72
2023/03/12 10:42:19;;;;;;;;;;;6.60;99.90;;;;;;5030639;28;19924;-73
2023/03/12 10:44:51;;;;;;;;;;;6.60;99.90;;;;;;5031321;28;20358;-73
2023/03/12 10:47:22;;;;;;;;;;;6.70;99.70;;;;;;5030393;28;19909;-72
2023/03/12 10:49:49;;;;;;;;;;;6.60;98.00;;;;;;5033000;28;19960;-70
2023/03/12 10:52:16;;;;;;;;;;;6.70;99.90;;;;;;5038643;28;19952;-70
2023/03/12 10:54:43;;;;;;;;;;;6.90;99.90;;;;;;5040271;28;19913;-69
2023/03/12 10:57:09;;;;;;;;;;;6.90;99.00;;;;;;5044681;28;19920;-72
2023/03/12 10:59:41;;;;;;;;;;;7.00;99.90;;;;;;5041777;28;19913;-73
2023/03/12 11:02:26;;;;;;;;;;;7.00;99.90;;;;;;5040310;28;20006;-71
2023/03/12 11:04:52;;;;;;;;;;;7.00;99.90;;;;;;5053637;28;20055;-70
2023/03/12 11:07:20;;;;;;;;;;;7.00;99.40;;;;;;5051593;28;19909;-71
2023/03/12 11:09:45;;;;;;;;;;;7.10;98.10;;;;;;5038003;28;19913;-71
2023/03/12 11:12:21;;;;;;;;;;;7.10;97.70;;;;;;5035985;28;19919;-71
2023/03/12 11:14:47;;;;;;;;;;;7.20;97.60;;;;;;5034068;28;19913;-71
2023/03/12 11:17:20;;;;;;;;;;;7.30;99.60;;;;;;5036838;28;20036;-70
2023/03/12 11:19:45;;;;;;;;;;;7.40;99.70;;;;;;5038134;28;19924;-71
2023/03/12 11:22:14;;;;;;;;;;;7.50;98.50;;;;;;5035802;28;19917;-72
2023/03/12 11:24:54;;;;;;;;;;;7.60;99.90;;;;;;5032267;28;20297;-71
2023/03/12 11:27:25;;;;;;;;;;;7.80;97.40;;;;;;5033780;28;20390;-72
2023/03/12 11:29:50;;;;;;;;;;;7.80;96.90;;;;;;5049024;28;19921;-71
2023/03/12 11:32:27;;;;;;;;;;;7.70;95.80;;;;;;5033555;28;19967;-71
2023/03/12 11:34:53;;;;;;;;;;;7.80;99.30;;;;;;5033132;28;20534;-71
2023/03/12 11:37:30;;;;;;;;;;;7.90;97.20;;;;;;5033465;28;19920;-72
2023/03/12 11:40:10;;;;;;;;;;;8.00;98.60;;;;;;5033585;28;20373;-72
2023/03/12 11:43:00;;;;;;;;;;;8.10;99.20;;;;;;5033188;28;19914;-72
2023/03/12 11:45:28;;;;;;;;;;;8.20;95.60;;;;;;5033025;28;19913;-73
2023/03/12 11:48:02;;;;;;;;;;;8.40;94.40;;;;;;5025793;28;19917;-71
2023/03/12 11:50:37;;;;;;;;;;;8.40;92.40;;;;;;5031107;28;19909;-72
2023/03/12 11:53:27;;;;;;;;;;;8.40;92.70;;;;;;5013966;28;19925;-72
2023/03/12 11:55:53;;;;;;;;;;;8.30;94.60;;;;;;5024977;28;20347;-71
2023/03/12 11:58:19;;;;;;;;;;;8.30;96.10;;;;;;5026441;28;19909;-72
2023/03/12 12:00:44;;;;;;;;;;;8.30;96.60;;;;;;5047458;28;19935;-72
2023/03/12 12:03:28;;;;;;;;;;;8.40;95.70;;;;;;5041557;28;19910;-72
2023/03/12 12:06:20;;;;;;;;;;;8.50;95.10;;;;;;5037172;28;19928;-71
2023/03/12 12:08:45;;;;;;;;;;;8.60;93.90;;;;;;5019845;28;20526;-73
2023/03/12 12:11:29;;;;;;;;;;;8.70;95.70;;;;;;5034999;28;19956;-71
2023/03/12 12:14:10;;;;;;;;;;;8.80;94.90;;;;;;5033170;28;20370;-71
2023/03/12 12:16:58;;;;;;;;;;;8.60;96.10;;;;;;5033597;28;19909;-71
2023/03/12 12:19:50;;;;;;;;;;;8.60;99.10;;;;;;5004092;28;19971;-71
2023/03/12 12:22:27;;;;;;;;;;;8.70;99.90;;;;;;5033239;28;20342;-72
2023/03/12 12:24:55;;;;;;;;;;;8.60;99.90;;;;;;5032149;28;20012;-72
2023/03/12 12:27:24;;;;;;;;;;;8.70;99.90;;;;;;5021835;28;20547;-74
2023/03/12 12:30:08;;;;;;;;;;;8.80;99.90;;;;;;5027435;28;19931;-71
2023/03/12 12:32:53;;;;;;;;;;;8.90;99.90;;;;;;5013574;28;19937;-71
2023/03/12 12:35:18;;;;;;;;;;;9.00;98.20;;;;;;5020713;28;19966;-74
2023/03/12 12:37:51;;;;;;;;;;;9.20;97.20;;;;;;5033104;28;20377;-78
2023/03/12 12:40:19;;;;;;;;;;;9.50;98.00;;;;;;5034661;28;19909;-73
2023/03/12 12:42:52;;;;;;;;;;;9.90;93.30;;;;;;5032496;28;19910;-76
2023/03/12 12:45:19;;;;;;;;;;;10.20;88.60;;;;;;5014721;28;20010;-74
2023/03/12 12:47:44;;;;;;;;;;;10.40;86.80;;;;;;5014735;28;19916;-74
2023/03/12 12:50:14;;;;;;;;;;;10.70;85.40;;;;;;5014723;28;19909;-71
2023/03/12 12:52:40;;;;;;;;;;;10.90;81.90;;;;;;5030732;28;19914;-73
2023/03/12 12:55:26;;;;;;;;;;;11.30;78.00;;;;;;5028800;28;19920;-72
2023/03/12 12:58:18;;;;;;;;;;;11.50;78.40;;;;;;5035725;28;20043;-72
2023/03/12 13:00:43;;;;;;;;;;;11.80;74.50;;;;;;5025154;28;20293;-71
2023/03/12 13:03:17;;;;;;;;;;;12.20;72.50;;;;;;5014521;28;19969;-73
2023/03/12 13:05:44;;;;;;;;;;;12.50;70.80;;;;;;5028689;28;19963;-72
2023/03/12 13:08:30;;;;;;;;;;;12.70;68.30;;;;;;5034361;28;20004;-73
2023/03/12 13:10:55;;;;;;;;;;;12.90;67.20;;;;;;5033480;28;19964;-73
2023/03/12 13:13:22;;;;;;;;;;;12.80;66.50;;;;;;5032661;28;19956;-71
2023/03/12 13:15:48;;;;;;;;;;;12.60;68.50;;;;;;5033750;28;20396;-73
2023/03/12 13:18:22;;;;;;;;;;;12.40;72.10;;;;;;5038737;28;20023;-71
2023/03/12 13:20:50;;;;;;;;;;;12.10;75.10;;;;;;5024692;28;19913;-72
2023/03/12 13:23:18;;;;;;;;;;;11.90;78.10;;;;;;5026825;28;19963;-71
2023/03/12 13:25:47;;;;;;;;;;;11.80;81.60;;;;;;5024460;28;19921;-75
2023/03/12 13:28:29;;;;;;;;;;;11.60;83.40;;;;;;5031728;28;19913;-72
2023/03/12 13:30:55;;;;;;;;;;;11.40;85.50;;;;;;5031352;28;20305;-71
2023/03/12 13:33:56;;;;;;;;;;;11.30;88.60;;;;;;5032941;28;19952;-71
2023/03/12 13:36:23;;;;;;;;;;;11.20;92.70;;;;;;4973419;28;19946;-73
2023/03/12 13:38:53;;;;;;;;;;;11.30;90.70;;;;;;5028579;28;19916;-72
2023/03/12 13:41:31;;;;;;;;;;;11.50;86.70;;;;;;5040606;28;20344;-73
2023/03/12 13:43:56;;;;;;;;;;;11.70;85.20;;;;;;5036892;28;19909;-72
2023/03/12 13:46:34;;;;;;;;;;;11.80;81.20;;;;;;5032765;28;19971;-71
2023/03/12 13:49:02;;;;;;;;;;;11.80;79.80;;;;;;5032698;28;19909;-72
2023/03/12 13:51:28;;;;;;;;;;;11.90;78.20;;;;;;5032628;28;19920;-72
2023/03/12 13:53:56;;;;;;;;;;;11.90;77.40;;;;;;5032850;28;19913;-71
2023/03/12 13:56:45;;;;;;;;;;;11.90;78.40;;;;;;5032718;28;19916;-72
2023/03/12 13:59:15;;;;;;;;;;;12.10;78.00;;;;;;5032611;28;19909;-73
2023/03/12 14:01:44;;;;;;;;;;;12.50;72.00;;;;;;5032214;28;19916;-71
2023/03/12 14:04:12;;;;;;;;;;;12.70;69.30;;;;;;5032304;28;19977;-72
2023/03/12 14:06:51;;;;;;;;;;;12.80;67.90;;;;;;5032780;28;19956;-71
2023/03/12 14:09:17;;;;;;;;;;;12.80;64.70;;;;;;5033391;28;19909;-72
2023/03/12 14:11:43;;;;;;;;;;;12.80;66.40;;;;;;5036098;28;19924;-72
2023/03/12 14:14:22;;;;;;;;;;;12.70;65.80;;;;;;5039057;28;19909;-72
2023/03/12 14:16:50;;;;;;;;;;;12.50;66.50;;;;;;5039530;28;19910;-72
2023/03/12 14:19:18;;;;;;;;;;;12.40;64.40;;;;;;5050963;28;19910;-72
2023/03/12 14:21:45;;;;;;;;;;;12.40;67.10;;;;;;5034239;28;20302;-71
2023/03/12 14:24:20;;;;;;;;;;;12.30;65.10;;;;;;5031405;28;20059;-72
2023/03/12 14:26:47;;;;;;;;;;;12.40;62.20;;;;;;5032832;28;19910;-71
2023/03/12 14:29:22;;;;;;;;;;;12.60;59.30;;;;;;5032356;28;19925;-72
2023/03/12 14:31:48;;;;;;;;;;;12.80;59.20;;;;;;5032496;28;19909;-72
2023/03/12 14:34:19;;;;;;;;;;;13.00;54.90;;;;;;5032572;28;20433;-70